Terminal Aerodrome Forecast
Issued by NWS Green Bay, WI

Home | Current Version | Previous Version | Graphics & Text | Print | Product List | Glossary On
Versions: 1 2 3 4 5 6 7 8 9 10 11 12 13 14 15 16 17 18 19 20 21 22 23 24 25 26 27 28 29 30 31 32 33 34 35 36 37 38 39
000
FTUS43 KGRB 311700
TAFGRB
TAF
KGRB 311737Z 3118/0118 17007KT P6SM BKN020 OVC030
     FM311900 15007KT P6SM SCT030
     FM010300 17004KT P6SM BKN120
     FM010900 18005KT 5SM BR BKN090
     FM011500 20010G16KT 3SM SHRA BKN020 OVC040=

USA.gov is the U.S. government's official web portal to all federal, state and local government web resources and services.